Latest Weather Observations for Lameroo AWS

IDS60801

Issued at 5:01 pm CST Sunday 11 April 2021 (issued every 10 minutes, with the page automatically refreshed every 10 minutes)

About weather observations | Map of weather stations | Latest weather observations for SA | Other Formats
Station Details ID: 025562 Name: AUSTIN PLAINS Lat: -35.38 Lon: 140.54 Height: 110.08 m
Data from the previous 72 hours. | See also: Recent months at Lameroo AWS
Date/Time
CST
Temp
°C
App
Temp
°C
Dew
Point
°C
Rel
Hum
%
Delta-T
°C
Wind Press
QNH
hPa
Press
MSL
hPa
Rain since
9am
mm
Dir  Spd
km/h
Gust
km/h
Spd
kts
Gust
kts
11/05:00pm 16.3 11.0 3.0 41 6.1 SW 20 28 11 15 1022.3 1022.2 0.0
11/04:30pm 16.2 9.7 2.9 41 6.0 S 26 32 14 17 1022.1 1022.0 0.0
11/04:00pm 16.8 9.8 1.7 36 6.8 S 28 37 15 20 1022.1 1022.0 0.0
11/03:30pm 17.0 9.2 1.8 36 6.8 S 32 43 17 23 1021.8 1021.7 0.0
11/03:00pm 18.0 10.9 1.5 33 7.4 SSW 28 39 15 21 1021.8 1021.7 0.0
11/02:30pm 18.1 10.7 2.0 34 7.3 SSW 30 43 16 23 1021.6 1021.5 0.0
11/02:00pm 19.3 12.3 2.2 32 7.9 SSW 28 39 15 21 1021.3 1021.2 0.0
11/01:39pm 18.6 11.2 2.0 33 7.6 SSW 30 50 16 27 1021.1 1021.0 0.0
11/01:30pm 18.5 12.0 0.6 30 7.9 SSW 24 35 13 19 1021.2 1021.1 0.0
11/01:00pm 18.3 10.8 1.3 32 7.6 SSW 30 44 16 24 1021.6 1021.5 0.0
11/12:30pm 18.3 10.9 1.8 33 7.5 SSW 30 48 16 26 1021.8 1021.7 0.0
11/12:23pm 17.0 10.0 1.8 36 6.8 SSW 28 48 15 26 1021.8 1021.7 0.0
11/12:00pm 17.6 10.6 2.0 35 7.0 SSW 28 44 15 24 1022.0 1021.9 0.0
11/11:30am 16.9 8.9 1.8 36 6.7 SSW 33 44 18 24 1022.2 1022.1 0.0
11/11:00am 16.4 9.5 2.4 39 6.3 S 28 37 15 20 1022.2 1022.1 0.0
11/10:30am 16.2 8.5 2.2 39 6.3 S 32 43 17 23 1022.3 1022.2 0.0
11/10:00am 15.4 7.8 2.6 42 5.8 S 32 43 17 23 1022.4 1022.3 0.0
11/09:30am 15.0 8.8 4.4 49 4.9 SSW 26 41 14 22 1022.4 1022.3 0.0
11/09:00am 14.1 7.9 4.4 52 4.5 SSW 26 39 14 21 1022.3 1022.2 0.2
11/08:30am 13.5 8.6 4.9 56 4.0 SSW 20 28 11 15 1021.9 1021.8 0.2
11/08:00am 12.0 9.4 5.9 66 2.9 SW 9 13 5 7 1021.7 1021.6 0.2
11/07:30am 10.6 8.6 6.9 78 1.8 SW 7 11 4 6 1021.2 1021.1 0.2
11/07:00am 8.3 6.2 5.8 84 1.1 SW 6 7 3 4 1020.6 1020.5 0.2
11/06:30am 8.2 5.1 5.7 84 1.1 SW 11 13 6 7 1020.3 1020.2 0.2
11/06:00am 9.9 7.3 6.3 78 1.7 SSW 9 15 5 8 1019.8 1019.7 0.2
11/05:30am 10.2 6.9 6.2 76 1.9 SW 13 17 7 9 1019.5 1019.4 0.2
11/05:00am 10.6 7.4 6.7 77 1.8 SW 13 19 7 10 1019.3 1019.2 0.2
11/04:30am 10.5 7.7 6.8 78 1.8 SW 11 15 6 8 1019.1 1019.0 0.2
11/04:00am 10.3 7.4 6.6 78 1.7 SW 11 13 6 7 1018.8 1018.7 0.2
11/03:30am 10.8 6.9 6.9 77 1.9 SSW 17 26 9 14 1018.4 1018.3 0.2
11/03:00am 10.4 7.0 7.5 82 1.4 SW 15 19 8 10 1018.3 1018.1 0.2
11/02:30am 9.9 6.4 7.0 82 1.4 SW 15 19 8 10 1018.1 1017.9 0.2
11/02:00am 10.9 6.6 7.2 78 1.8 SW 19 26 10 14 1017.9 1017.7 0.2
11/01:30am 11.4 7.2 7.5 77 1.9 SSW 19 24 10 13 1018.1 1017.9 0.2
11/01:00am 10.9 6.7 8.3 84 1.3 SW 20 26 11 14 1018.0 1017.8 0.2
11/12:30am 11.0 6.1 8.4 84 1.3 SW 24 35 13 19 1017.8 1017.6 0.2
11/12:00am 10.5 5.9 8.1 85 1.2 SW 22 28 12 15 1017.9 1017.7 0.2
 
Date/Time
CST
Temp
°C
App
Temp
°C
Dew
Point
°C
Rel
Hum
%
Delta-T
°C
Wind Press
QNH
hPa
Press
MSL
hPa
Rain since
9am
mm
Dir  Spd
km/h
Gust
km/h
Spd
kts
Gust
kts
10/11:47pm 10.8 5.1 8.2 84 1.3 SW 28 46 15 25 1017.9 1017.7 0.2
10/11:36pm 10.9 6.6 8.0 82 1.4 WSW 20 46 11 25 1018.2 1018.0 0.2
10/11:30pm 11.1 7.6 7.0 76 2.0 WSW 15 20 8 11 1018.1 1017.9 0.0
10/11:00pm 10.9 6.8 6.3 73 2.2 WSW 17 20 9 11 1017.8 1017.6 0.0
10/10:30pm 12.3 7.0 7.0 70 2.6 SW 24 32 13 17 1017.6 1017.4 0.0
10/10:00pm 12.6 7.4 7.3 70 2.6 SW 24 35 13 19 1017.6 1017.4 0.0
10/09:30pm 12.4 7.5 6.9 69 2.6 WSW 22 33 12 18 1017.5 1017.3 0.0
10/09:00pm 13.0 8.5 6.8 66 3.0 SW 20 30 11 16 1017.2 1017.0 0.0
10/08:30pm 13.2 7.7 6.1 62 3.4 SW 24 35 13 19 1016.9 1016.7 0.0
10/08:00pm 12.7 8.1 5.8 63 3.3 SW 19 24 10 13 1016.6 1016.4 0.0
10/07:30pm 12.6 8.1 6.0 64 3.1 SW 19 26 10 14 1016.4 1016.2 0.0
10/07:00pm 13.1 8.0 6.0 62 3.4 SW 22 28 12 15 1016.2 1016.0 0.0
10/06:30pm 14.0 8.9 6.1 59 3.8 SW 22 41 12 22 1015.7 1015.5 0.0
10/06:00pm 13.8 8.3 5.9 59 3.8 SW 24 33 13 18 1015.4 1015.2 0.0
10/05:30pm 15.0 7.1 6.0 55 4.3 SSW 37 48 20 26 1015.2 1015.0 0.0
10/05:15pm 15.6 6.8 5.5 51 4.8 SW 41 61 22 33 1014.9 1014.7 0.0
10/05:00pm 16.4 8.3 3.1 41 6.1 SW 35 48 19 26 1014.7 1014.5 0.0
10/04:30pm 17.4 8.7 2.2 36 6.9 SW 37 48 20 26 1014.5 1014.3 0.0
10/04:00pm 18.2 9.2 2.5 35 7.2 SW 39 56 21 30 1014.4 1014.2 0.0
10/03:37pm 18.3 10.2 3.4 37 7.0 SW 35 54 19 29 1014.2 1014.0 0.0
10/03:30pm 18.9 10.7 4.7 39 6.9 SW 37 52 20 28 1014.2 1014.0 0.0
10/03:00pm 17.6 8.9 5.9 46 5.7 SW 41 54 22 29 1014.0 1013.8 0.0
10/02:30pm 18.0 8.9 4.2 40 6.6 SW 41 56 22 30 1013.9 1013.7 0.0
10/02:02pm 18.5 10.3 6.4 45 6.0 SW 39 57 21 31 1013.5 1013.4 0.0
10/02:00pm 18.6 10.2 5.8 43 6.3 SW 39 52 21 28 1013.5 1013.4 0.0
10/01:30pm 19.1 11.4 6.9 45 6.2 SW 37 52 20 28 1013.3 1013.2 0.0
10/01:00pm 19.0 11.4 7.4 47 5.9 SW 37 52 20 28 1013.4 1013.3 0.0
10/12:30pm 19.6 13.2 9.5 52 5.4 SW 33 46 18 25 1013.5 1013.4 0.0
10/12:00pm 15.9 10.4 10.7 71 2.8 SW 30 46 16 25 1013.6 1013.5 0.0
10/11:35am 15.4 10.0 12.9 85 1.4 SW 33 54 18 29 1014.0 1013.8 0.0
10/11:30am 15.2 9.1 11.8 80 1.8 SW 35 54 19 29 1013.9 1013.7 0.0
10/11:26am 16.8 10.8 10.9 68 3.2 SW 33 54 18 29 1013.8 1013.6 0.0
10/11:00am 19.2 13.0 9.4 53 5.2 SW 32 43 17 23 1013.5 1013.4 0.0
10/10:30am 17.7 12.3 9.6 59 4.3 SW 28 37 15 20 1013.5 1013.4 0.0
10/10:00am 17.5 12.5 11.1 66 3.5 WSW 28 39 15 21 1013.8 1013.6 0.0
10/09:30am 16.1 12.3 12.5 79 2.0 WSW 24 33 13 18 1013.8 1013.6 0.0
10/09:00am 14.7 11.7 12.6 87 1.2 WSW 20 30 11 16 1014.0 1013.8 0.6
10/08:30am 13.3 10.3 12.4 94 0.5 WSW 20 26 11 14 1013.9 1013.7 0.6
10/08:00am 13.2 10.2 11.9 92 0.7 WSW 19 24 10 13 1013.6 1013.5 0.2
10/07:30am 12.6 10.7 11.7 94 0.5 WSW 13 17 7 9 1013.2 1013.1 0.2
10/07:00am 12.2 10.2 11.4 95 0.4 WSW 13 15 7 8 1012.9 1012.8 0.2
10/06:30am 12.3 9.1 11.4 94 0.5 WSW 19 26 10 14 1012.5 1012.4 0.2
10/06:00am 12.0 9.5 11.1 94 0.5 W 15 24 8 13 1012.4 1012.3 0.2
10/05:30am 11.9 9.7 10.8 93 0.6 W 13 17 7 9 1012.2 1012.1 0.2
10/05:00am 11.8 9.3 10.9 94 0.5 W 15 22 8 12 1012.1 1012.0 0.2
10/04:30am 11.4 9.1 10.5 94 0.5 W 13 17 7 9 1011.9 1011.8 0.2
10/04:00am 11.2 8.9 10.3 94 0.5 W 13 15 7 8 1011.9 1011.8 0.2
10/03:30am 11.1 9.6 10.5 96 0.3 WNW 9 15 5 8 1011.9 1011.8 0.2
10/03:00am 10.4 7.5 9.8 96 0.3 WNW 15 17 8 9 1012.1 1012.0 0.2
10/02:30am 9.6 7.3 9.0 96 0.3 W 11 13 6 7 1012.1 1012.0 0.2
10/02:00am 10.1 8.6 9.2 94 0.4 WSW 7 9 4 5 1012.1 1012.0 0.2
10/01:30am 10.9 9.3 10.1 95 0.4 WSW 9 11 5 6 1012.5 1012.4 0.2
10/01:00am 11.6 9.0 10.8 95 0.4 WSW 15 20 8 11 1012.7 1012.6 0.0
10/12:30am 10.9 8.3 9.2 89 0.9 W 13 15 7 8 1012.6 1012.5 0.0
10/12:00am 9.3 7.1 7.9 91 0.7 WSW 9 11 5 6 1012.8 1012.7 0.0
 
Date/Time
CST
Temp
°C
App
Temp
°C
Dew
Point
°C
Rel
Hum
%
Delta-T
°C
Wind Press
QNH
hPa
Press
MSL
hPa
Rain since
9am
mm
Dir  Spd
km/h
Gust
km/h
Spd
kts
Gust
kts
09/11:30pm 9.4 6.7 7.3 87 1.0 WSW 11 13 6 7 1012.9 1012.8 0.0
09/11:00pm 10.4 7.9 8.2 86 1.1 WSW 11 13 6 7 1013.1 1013.0 0.0
09/10:30pm 11.6 9.5 8.1 79 1.7 WSW 9 11 5 6 1013.2 1013.1 0.0
09/10:00pm 13.5 9.8 9.4 76 2.1 WSW 19 26 10 14 1013.4 1013.3 0.0
09/09:30pm 13.0 10.3 7.5 69 2.7 SW 11 13 6 7 1013.4 1013.3 0.0
09/09:00pm 10.9 7.9 5.9 71 2.3 SW 11 13 6 7 1013.4 1013.3 0.0
09/08:30pm 12.4 9.0 6.0 65 3.0 SW 13 15 7 8 1013.1 1013.0 0.0
09/08:00pm 14.1 10.4 6.5 60 3.7 SW 15 19 8 10 1012.8 1012.7 0.0
09/07:30pm 15.2 10.7 6.2 55 4.4 SW 19 22 10 12 1012.5 1012.4 0.0
09/07:00pm 15.4 10.3 5.9 53 4.6 SW 22 28 12 15 1012.4 1012.3 0.0
09/06:30pm 15.6 10.4 5.5 51 4.8 SW 22 30 12 16 1012.0 1011.9 0.0
09/06:00pm 15.9 9.8 4.9 48 5.2 SW 26 35 14 19 1011.6 1011.5 0.0
09/05:30pm 17.2 11.5 4.9 44 5.9 SW 24 33 13 18 1011.2 1011.1 0.0
09/05:00pm 18.9 13.7 5.4 41 6.6 SSW 22 33 12 18 1010.9 1010.8 0.0
09/04:30pm 18.9 12.8 5.0 40 6.8 SSW 26 33 14 18 1011.0 1010.9 0.0
09/04:00pm 20.8 15.2 5.6 37 7.6 SW 24 32 13 17 1010.7 1010.6 0.0
09/03:30pm 21.5 16.0 5.8 36 7.9 SW 24 35 13 19 1011.0 1010.9 0.0
09/03:00pm 21.3 16.4 5.2 35 8.0 SSW 20 30 11 16 1011.3 1011.2 0.0
09/02:30pm 21.1 16.4 6.2 38 7.5 SW 20 35 11 19 1011.2 1011.1 0.0
09/02:00pm 21.3 16.3 4.8 34 8.1 SSW 20 35 11 19 1011.2 1011.1 0.0
09/01:30pm 21.1 15.6 4.2 33 8.2 SSW 22 32 12 17 1011.3 1011.2 0.0
09/01:00pm 21.0 16.1 5.0 35 7.9 SW 20 32 11 17 1011.6 1011.5 0.0
09/12:30pm 19.3 15.5 3.9 36 7.4 S 13 20 7 11 1012.4 1012.3 0.0
09/12:00pm 19.8 15.0 4.7 37 7.4 SW 19 33 10 18 1012.9 1012.8 0.0
09/11:30am 19.3 13.7 5.4 40 6.8 SSW 24 33 13 18 1012.9 1012.8 0.0
09/11:00am 19.0 14.4 5.5 41 6.6 SSW 19 32 10 17 1013.3 1013.2 0.0
09/10:30am 18.4 12.9 5.9 44 6.2 S 24 35 13 19 1013.3 1013.2 0.0
09/10:00am 18.2 12.7 5.8 44 6.1 SSW 24 33 13 18 1013.4 1013.3 0.0
09/09:30am 17.4 12.7 6.0 47 5.6 SSW 20 32 11 17 1013.5 1013.4 0.0
09/09:00am 16.8 12.2 8.0 56 4.5 S 22 32 12 17 1013.9 1013.7 0.0
09/08:30am 15.1 11.7 9.0 67 3.1 S 17 26 9 14 1013.8 1013.6 0.0
09/08:00am 14.9 11.0 10.9 77 2.1 S 22 28 12 15 1013.1 1013.0 0.0
09/07:30am 13.5 11.1 11.4 87 1.1 SSE 15 20 8 11 1012.5 1012.4 0.0
09/07:00am 12.6 10.0 10.8 89 0.9 S 15 17 8 9 1012.1 1012.0 0.0
09/06:30am 12.8 10.3 11.0 89 0.9 S 15 22 8 12 1011.8 1011.7 0.0
09/06:00am 13.6 10.9 11.7 88 1.0 S 17 26 9 14 1011.2 1011.1 0.0
09/05:30am 14.1 10.5 12.0 87 1.1 S 22 28 12 15 1010.8 1010.7 0.0
09/05:00am 14.1 11.0 12.1 88 1.1 SSW 20 26 11 14 1010.7 1010.6 0.0
09/04:30am 14.2 11.8 12.6 90 0.9 S 17 22 9 12 1010.2 1010.0 0.0
09/04:00am 14.3 11.1 13.0 92 0.7 S 22 32 12 17 1009.9 1009.7 0.0
09/03:30am 14.7 10.0 13.2 91 0.8 S 30 39 16 21 1009.9 1009.7 0.0
09/03:00am 15.6 12.5 13.3 86 1.3 S 22 32 12 17 1009.9 1009.7 0.0
09/02:30am 16.2 12.7 14.4 89 1.0 SSW 26 35 14 19 1009.8 1009.6 0.0
09/02:00am 16.5 14.5 14.9 90 0.9 SW 19 24 10 13 1009.3 1009.1 0.0
09/01:30am 16.4 14.3 14.8 90 0.9 SSW 19 24 10 13 1009.7 1009.5 0.0
09/01:00am 16.4 15.0 14.6 89 1.0 SSW 15 17 8 9 1009.5 1009.3 0.0
09/12:30am 16.8 15.3 15.2 90 0.9 SSW 17 20 9 11 1009.1 1008.9 0.0
09/12:00am 16.8 15.3 14.1 84 1.5 WSW 15 19 8 10 1009.7 1009.5 0.0
 
Date/Time
CST
Temp
°C
App
Temp
°C
Dew
Point
°C
Rel
Hum
%
Delta-T
°C
Wind Press
QNH
hPa
Press
MSL
hPa
Rain since
9am
mm
Dir  Spd
km/h
Gust
km/h
Spd
kts
Gust
kts
08/11:30pm 17.0 14.2 12.7 76 2.4 SW 19 22 10 12 1009.9 1009.7 0.0
08/11:00pm 16.8 14.9 10.4 66 3.4 SW 11 13 6 7 1008.6 1008.4 0.0
08/10:30pm 17.5 16.0 10.4 63 3.8 S 9 13 5 7 1008.2 1008.0 0.0
08/10:00pm 17.8 14.8 10.7 63 3.8 SSW 17 20 9 11 1008.8 1008.6 0.0
08/09:30pm 16.1 13.7 6.8 54 4.6 SSE 9 17 5 9 1007.9 1007.7 0.0
08/09:00pm 17.0 14.1 8.2 56 4.5 S 13 15 7 8 1007.9 1007.7 0.0
08/08:30pm 17.4 13.8 6.6 49 5.4 SSW 15 19 8 10 1008.4 1008.2 0.0
08/08:00pm 18.9 15.2 6.1 43 6.4 SSW 15 17 8 9 1008.1 1007.9 0.0
08/07:30pm 19.7 15.6 4.2 36 7.5 SSW 15 22 8 12 1008.1 1007.9 0.0
08/07:00pm 20.6 17.1 3.3 32 8.2 SSW 11 13 6 7 1007.7 1007.5 0.0
08/06:30pm 22.7 17.6 3.3 28 9.4 SSW 19 20 10 11 1007.6 1007.4 0.0
08/06:00pm 25.1 18.9 1.9 22 11.2 SSW 24 32 13 17 1007.3 1007.1 0.0
08/05:30pm 27.7 20.5 0.5 17 13.0 SW 28 35 15 19 1006.8 1006.6 0.0

Other formats

Comma delimited format used in spreadsheet applications
http://www.bom.gov.au/fwo/IDS60801/IDS60801.94690.axf

JavaScript Object Notation format (JSON) in row-major order
http://www.bom.gov.au/fwo/IDS60801/IDS60801.94690.json

Data quality

Most of these data are generated automatically and are frequently updated. Quality checks on data are not normally performed. It is possible for incorrect values to appear. Refer to information at About Latest Weather Observations and please check the disclaimer before using these data.